Hlavní strana
METAR-TAF:

METAR-TAF

Letiště :

Indianapolis, Indiana, Spojené státy americké

zeměpisná šířka: 39-50-37N, zeměpisná délka: 085-53-49W, výška: 263 m

Aktuální stav počasí

Zpráva byla vytvořena před 24 minutami, v 09:35 UTC
Severoseverozápadní vítr 4 kt
Teplota 12°C
Vlhkost vzduchu 100%
Tlak 1020 hPa
Viditelnost: 16.1 km
Jasno

METAR: KMQJ 300935Z AUTO 34004KT 10SM CLR 12/12 A3011 RMK AO1

Čas: 03:59 (09:59 UTC)


TAF: chybějící

Stav a předpovědi počasí z více než 4 000 letišť (zprávy METAR a TAF).

Červené a žluté tečky na mapě představují dostupné meteorologické stanice.

Když kurzor umístíte na tečku, zobrazí se název stanice.

Pak kliknutím zobrazíte stav a předpověď počasí.

Chcete-li změnit mapu, kliknutím na zelené tlačítko se znaménkem +mapu přiblížíte, kliknutím na zelené tlačítko se znaménkem – mapu oddálíte a kliknutím na zelené šipky přejdete na sousední mapy.


METAR-TAF: